sensor_id;sensor_type;location;lat;lon;timestamp;temperature;humidity
14101;DHT22;7127;49.372;8.166;2024-01-30T00:00:10;8.70;57.30
14101;DHT22;7127;49.372;8.166;2024-01-30T00:02:37;8.70;57.30
14101;DHT22;7127;49.372;8.166;2024-01-30T00:05:05;8.60;57.20
14101;DHT22;7127;49.372;8.166;2024-01-30T00:07:31;8.60;57.30
14101;DHT22;7127;49.372;8.166;2024-01-30T00:09:58;8.60;57.30
14101;DHT22;7127;49.372;8.166;2024-01-30T00:12:25;8.60;57.30
14101;DHT22;7127;49.372;8.166;2024-01-30T00:14:52;8.60;57.90
14101;DHT22;7127;49.372;8.166;2024-01-30T00:17:19;8.60;57.60
14101;DHT22;7127;49.372;8.166;2024-01-30T00:19:46;8.60;57.60
14101;DHT22;7127;49.372;8.166;2024-01-30T00:22:14;8.60;57.60
14101;DHT22;7127;49.372;8.166;2024-01-30T00:24:41;8.50;57.60
14101;DHT22;7127;49.372;8.166;2024-01-30T00:27:08;8.60;57.60
14101;DHT22;7127;49.372;8.166;2024-01-30T00:29:35;8.60;57.60
14101;DHT22;7127;49.372;8.166;2024-01-30T00:32:02;8.60;57.60
14101;DHT22;7127;49.372;8.166;2024-01-30T00:34:28;8.60;57.70
14101;DHT22;7127;49.372;8.166;2024-01-30T00:36:55;8.60;57.60
14101;DHT22;7127;49.372;8.166;2024-01-30T00:39:23;8.70;57.70
14101;DHT22;7127;49.372;8.166;2024-01-30T00:41:50;8.60;57.60
14101;DHT22;7127;49.372;8.166;2024-01-30T00:44:17;8.50;57.50
14101;DHT22;7127;49.372;8.166;2024-01-30T00:46:44;8.50;57.50
14101;DHT22;7127;49.372;8.166;2024-01-30T00:49:11;8.50;57.50
14101;DHT22;7127;49.372;8.166;2024-01-30T00:51:37;8.50;57.50
14101;DHT22;7127;49.372;8.166;2024-01-30T00:54:04;8.80;57.70
14101;DHT22;7127;49.372;8.166;2024-01-30T00:56:33;8.50;57.50
14101;DHT22;7127;49.372;8.166;2024-01-30T00:59:00;8.50;57.50
14101;DHT22;7127;49.372;8.166;2024-01-30T01:01:27;8.50;57.50
14101;DHT22;7127;49.372;8.166;2024-01-30T01:03:54;8.50;57.40
14101;DHT22;7127;49.372;8.166;2024-01-30T01:06:21;8.50;57.50
14101;DHT22;7127;49.372;8.166;2024-01-30T01:08:47;8.40;57.40
14101;DHT22;7127;49.372;8.166;2024-01-30T01:11:14;8.50;57.70
14101;DHT22;7127;49.372;8.166;2024-01-30T01:13:42;8.40;57.30
14101;DHT22;7127;49.372;8.166;2024-01-30T01:16:09;8.50;57.40
14101;DHT22;7127;49.372;8.166;2024-01-30T01:18:36;8.40;57.30
14101;DHT22;7127;49.372;8.166;2024-01-30T01:21:03;9.20;57.90
14101;DHT22;7127;49.372;8.166;2024-01-30T01:23:30;8.30;57.30
14101;DHT22;7127;49.372;8.166;2024-01-30T01:25:57;8.30;57.40
14101;DHT22;7127;49.372;8.166;2024-01-30T01:28:25;8.40;57.50
14101;DHT22;7127;49.372;8.166;2024-01-30T01:30:53;8.30;57.30
14101;DHT22;7127;49.372;8.166;2024-01-30T01:33:24;8.20;57.30
14101;DHT22;7127;49.372;8.166;2024-01-30T01:35:51;8.20;57.30
14101;DHT22;7127;49.372;8.166;2024-01-30T01:38:17;8.20;57.30
14101;DHT22;7127;49.372;8.166;2024-01-30T01:40:44;8.20;57.30
14101;DHT22;7127;49.372;8.166;2024-01-30T01:43:11;8.20;57.30
14101;DHT22;7127;49.372;8.166;2024-01-30T01:45:38;8.30;57.40
14101;DHT22;7127;49.372;8.166;2024-01-30T01:48:07;8.10;57.30
14101;DHT22;7127;49.372;8.166;2024-01-30T01:50:33;8.10;57.80
14101;DHT22;7127;49.372;8.166;2024-01-30T01:53:00;8.10;57.20
14101;DHT22;7127;49.372;8.166;2024-01-30T01:55:29;8.10;57.30
14101;DHT22;7127;49.372;8.166;2024-01-30T01:57:57;8.00;57.10
14101;DHT22;7127;49.372;8.166;2024-01-30T02:00:24;8.00;57.00
14101;DHT22;7127;49.372;8.166;2024-01-30T02:02:52;8.00;56.90
14101;DHT22;7127;49.372;8.166;2024-01-30T02:05:21;7.90;56.80
14101;DHT22;7127;49.372;8.166;2024-01-30T02:07:48;7.80;56.80
14101;DHT22;7127;49.372;8.166;2024-01-30T02:10:14;7.80;57.00
14101;DHT22;7127;49.372;8.166;2024-01-30T02:12:41;7.80;57.00
14101;DHT22;7127;49.372;8.166;2024-01-30T02:15:08;7.80;57.10
14101;DHT22;7127;49.372;8.166;2024-01-30T02:17:35;7.80;57.20
14101;DHT22;7127;49.372;8.166;2024-01-30T02:20:02;7.70;57.30
14101;DHT22;7127;49.372;8.166;2024-01-30T02:22:32;7.70;57.30
14101;DHT22;7127;49.372;8.166;2024-01-30T02:25:00;7.70;57.30
14101;DHT22;7127;49.372;8.166;2024-01-30T02:27:26;7.70;57.30
14101;DHT22;7127;49.372;8.166;2024-01-30T02:29:54;7.70;57.20
14101;DHT22;7127;49.372;8.166;2024-01-30T02:32:20;7.60;57.20
14101;DHT22;7127;49.372;8.166;2024-01-30T02:34:47;7.60;57.20
14101;DHT22;7127;49.372;8.166;2024-01-30T02:37:14;7.60;57.30
14101;DHT22;7127;49.372;8.166;2024-01-30T02:39:42;7.60;57.30
14101;DHT22;7127;49.372;8.166;2024-01-30T02:42:09;7.60;57.30
14101;DHT22;7127;49.372;8.166;2024-01-30T02:44:35;7.60;57.40
14101;DHT22;7127;49.372;8.166;2024-01-30T02:47:02;7.60;57.40
14101;DHT22;7127;49.372;8.166;2024-01-30T02:49:29;7.60;57.50
14101;DHT22;7127;49.372;8.166;2024-01-30T02:51:56;7.60;57.40
14101;DHT22;7127;49.372;8.166;2024-01-30T02:54:22;7.60;57.40
14101;DHT22;7127;49.372;8.166;2024-01-30T02:56:51;7.60;57.40
14101;DHT22;7127;49.372;8.166;2024-01-30T02:59:17;7.50;57.30
14101;DHT22;7127;49.372;8.166;2024-01-30T03:01:44;7.50;57.30
14101;DHT22;7127;49.372;8.166;2024-01-30T03:04:11;7.50;57.30
14101;DHT22;7127;49.372;8.166;2024-01-30T03:06:38;7.50;57.50
14101;DHT22;7127;49.372;8.166;2024-01-30T03:09:05;7.50;57.40
14101;DHT22;7127;49.372;8.166;2024-01-30T03:11:32;7.50;57.40
14101;DHT22;7127;49.372;8.166;2024-01-30T03:14:00;7.40;57.40
14101;DHT22;7127;49.372;8.166;2024-01-30T03:16:27;7.40;57.50
14101;DHT22;7127;49.372;8.166;2024-01-30T03:18:53;7.40;57.40
14101;DHT22;7127;49.372;8.166;2024-01-30T03:21:20;7.40;57.50
14101;DHT22;7127;49.372;8.166;2024-01-30T03:23:47;7.40;57.50
14101;DHT22;7127;49.372;8.166;2024-01-30T03:26:13;7.40;57.50
14101;DHT22;7127;49.372;8.166;2024-01-30T03:28:40;7.40;57.50
14101;DHT22;7127;49.372;8.166;2024-01-30T03:31:08;7.30;57.30
14101;DHT22;7127;49.372;8.166;2024-01-30T03:33:36;7.30;57.20
14101;DHT22;7127;49.372;8.166;2024-01-30T03:36:04;7.30;57.20
14101;DHT22;7127;49.372;8.166;2024-01-30T03:38:31;7.30;57.10
14101;DHT22;7127;49.372;8.166;2024-01-30T03:40:58;7.20;57.20
14101;DHT22;7127;49.372;8.166;2024-01-30T03:43:25;7.20;57.10
14101;DHT22;7127;49.372;8.166;2024-01-30T03:45:51;7.20;57.30
14101;DHT22;7127;49.372;8.166;2024-01-30T03:48:20;7.10;57.30
14101;DHT22;7127;49.372;8.166;2024-01-30T03:50:47;7.10;57.40
14101;DHT22;7127;49.372;8.166;2024-01-30T03:53:14;7.10;57.40
14101;DHT22;7127;49.372;8.166;2024-01-30T03:55:40;7.00;57.30
14101;DHT22;7127;49.372;8.166;2024-01-30T03:58:07;7.00;57.40
14101;DHT22;7127;49.372;8.166;2024-01-30T04:00:34;7.00;57.40
14101;DHT22;7127;49.372;8.166;2024-01-30T04:03:01;7.00;57.50
14101;DHT22;7127;49.372;8.166;2024-01-30T04:05:29;7.00;57.40
14101;DHT22;7127;49.372;8.166;2024-01-30T04:07:56;7.00;57.40
14101;DHT22;7127;49.372;8.166;2024-01-30T04:10:23;6.90;57.20
14101;DHT22;7127;49.372;8.166;2024-01-30T04:12:50;6.90;57.20
14101;DHT22;7127;49.372;8.166;2024-01-30T04:15:19;6.90;57.30
14101;DHT22;7127;49.372;8.166;2024-01-30T04:17:46;6.90;57.20
14101;DHT22;7127;49.372;8.166;2024-01-30T04:20:14;6.80;57.20
14101;DHT22;7127;49.372;8.166;2024-01-30T04:22:43;6.80;57.30
14101;DHT22;7127;49.372;8.166;2024-01-30T04:25:10;6.80;57.40
14101;DHT22;7127;49.372;8.166;2024-01-30T04:27:37;6.80;57.30
14101;DHT22;7127;49.372;8.166;2024-01-30T04:30:05;6.80;57.40
14101;DHT22;7127;49.372;8.166;2024-01-30T04:32:32;6.80;57.50
14101;DHT22;7127;49.372;8.166;2024-01-30T04:34:59;6.70;57.40
14101;DHT22;7127;49.372;8.166;2024-01-30T04:37:25;6.80;57.60
14101;DHT22;7127;49.372;8.166;2024-01-30T04:39:54;6.70;57.60
14101;DHT22;7127;49.372;8.166;2024-01-30T04:42:21;6.70;57.70
14101;DHT22;7127;49.372;8.166;2024-01-30T04:44:47;6.70;57.80
14101;DHT22;7127;49.372;8.166;2024-01-30T04:47:14;6.80;57.90
14101;DHT22;7127;49.372;8.166;2024-01-30T04:49:41;6.80;57.90
14101;DHT22;7127;49.372;8.166;2024-01-30T04:52:09;6.80;57.80
14101;DHT22;7127;49.372;8.166;2024-01-30T04:54:36;6.80;57.70
14101;DHT22;7127;49.372;8.166;2024-01-30T04:57:04;6.80;57.80
14101;DHT22;7127;49.372;8.166;2024-01-30T04:59:34;6.80;57.60
14101;DHT22;7127;49.372;8.166;2024-01-30T05:02:01;6.80;57.40
14101;DHT22;7127;49.372;8.166;2024-01-30T05:04:28;6.80;57.60
14101;DHT22;7127;49.372;8.166;2024-01-30T05:06:55;6.80;57.50
14101;DHT22;7127;49.372;8.166;2024-01-30T05:09:21;6.80;57.50
14101;DHT22;7127;49.372;8.166;2024-01-30T05:11:48;6.80;57.50
14101;DHT22;7127;49.372;8.166;2024-01-30T05:14:16;6.80;57.50
14101;DHT22;7127;49.372;8.166;2024-01-30T05:16:43;6.80;57.50
14101;DHT22;7127;49.372;8.166;2024-01-30T05:19:12;6.80;57.50
14101;DHT22;7127;49.372;8.166;2024-01-30T05:21:39;6.80;57.60
14101;DHT22;7127;49.372;8.166;2024-01-30T05:24:06;6.90;57.70
14101;DHT22;7127;49.372;8.166;2024-01-30T05:26:35;6.80;57.60
14101;DHT22;7127;49.372;8.166;2024-01-30T05:29:02;6.80;57.40
14101;DHT22;7127;49.372;8.166;2024-01-30T05:31:30;6.80;57.20
14101;DHT22;7127;49.372;8.166;2024-01-30T05:33:57;6.80;57.10
14101;DHT22;7127;49.372;8.166;2024-01-30T05:36:23;6.70;57.10
14101;DHT22;7127;49.372;8.166;2024-01-30T05:38:50;6.70;56.90
14101;DHT22;7127;49.372;8.166;2024-01-30T05:41:17;6.60;56.90
14101;DHT22;7127;49.372;8.166;2024-01-30T05:43:44;6.60;56.90
14101;DHT22;7127;49.372;8.166;2024-01-30T05:46:10;6.50;56.90
14101;DHT22;7127;49.372;8.166;2024-01-30T05:48:38;6.50;56.90
14101;DHT22;7127;49.372;8.166;2024-01-30T05:51:07;6.40;57.00
14101;DHT22;7127;49.372;8.166;2024-01-30T05:53:33;6.30;57.30
14101;DHT22;7127;49.372;8.166;2024-01-30T05:56:01;6.30;57.20
14101;DHT22;7127;49.372;8.166;2024-01-30T05:58:28;6.20;57.20
14101;DHT22;7127;49.372;8.166;2024-01-30T06:00:56;6.20;57.30
14101;DHT22;7127;49.372;8.166;2024-01-30T06:03:23;6.20;57.50
14101;DHT22;7127;49.372;8.166;2024-01-30T06:05:51;6.10;57.80
14101;DHT22;7127;49.372;8.166;2024-01-30T06:08:18;6.10;57.70
14101;DHT22;7127;49.372;8.166;2024-01-30T06:10:45;6.10;57.50
14101;DHT22;7127;49.372;8.166;2024-01-30T06:13:13;6.10;57.50
14101;DHT22;7127;49.372;8.166;2024-01-30T06:15:41;6.00;57.50
14101;DHT22;7127;49.372;8.166;2024-01-30T06:18:08;6.00;57.50
14101;DHT22;7127;49.372;8.166;2024-01-30T06:20:35;6.00;57.70
14101;DHT22;7127;49.372;8.166;2024-01-30T06:23:03;6.00;57.90
14101;DHT22;7127;49.372;8.166;2024-01-30T06:25:33;6.00;57.80
14101;DHT22;7127;49.372;8.166;2024-01-30T06:28:00;5.90;57.80
14101;DHT22;7127;49.372;8.166;2024-01-30T06:30:27;5.90;57.70
14101;DHT22;7127;49.372;8.166;2024-01-30T06:32:54;5.90;57.80
14101;DHT22;7127;49.372;8.166;2024-01-30T06:35:21;5.90;57.80
14101;DHT22;7127;49.372;8.166;2024-01-30T06:37:48;5.90;57.80
14101;DHT22;7127;49.372;8.166;2024-01-30T06:40:16;5.90;57.90
14101;DHT22;7127;49.372;8.166;2024-01-30T06:42:43;5.90;57.80
14101;DHT22;7127;49.372;8.166;2024-01-30T06:45:10;5.80;57.90
14101;DHT22;7127;49.372;8.166;2024-01-30T06:47:36;5.80;58.50
14101;DHT22;7127;49.372;8.166;2024-01-30T06:50:04;5.80;58.10
14101;DHT22;7127;49.372;8.166;2024-01-30T06:52:30;5.80;58.10
14101;DHT22;7127;49.372;8.166;2024-01-30T06:54:57;5.80;58.10
14101;DHT22;7127;49.372;8.166;2024-01-30T06:57:25;5.80;58.10
14101;DHT22;7127;49.372;8.166;2024-01-30T06:59:53;5.80;58.10
14101;DHT22;7127;49.372;8.166;2024-01-30T07:02:20;5.80;58.40
14101;DHT22;7127;49.372;8.166;2024-01-30T07:04:47;5.80;58.30
14101;DHT22;7127;49.372;8.166;2024-01-30T07:07:14;5.80;58.20
14101;DHT22;7127;49.372;8.166;2024-01-30T07:09:41;5.80;58.20
14101;DHT22;7127;49.372;8.166;2024-01-30T07:12:08;5.80;58.20
14101;DHT22;7127;49.372;8.166;2024-01-30T07:14:36;5.80;58.30
14101;DHT22;7127;49.372;8.166;2024-01-30T07:17:03;5.80;58.30
14101;DHT22;7127;49.372;8.166;2024-01-30T07:19:30;5.80;58.30
14101;DHT22;7127;49.372;8.166;2024-01-30T07:21:57;5.90;58.30
14101;DHT22;7127;49.372;8.166;2024-01-30T07:24:23;5.90;58.30
14101;DHT22;7127;49.372;8.166;2024-01-30T07:26:50;5.90;58.30
14101;DHT22;7127;49.372;8.166;2024-01-30T07:29:17;5.90;58.40
14101;DHT22;7127;49.372;8.166;2024-01-30T07:31:45;5.90;58.40
14101;DHT22;7127;49.372;8.166;2024-01-30T07:34:12;6.00;58.60
14101;DHT22;7127;49.372;8.166;2024-01-30T07:36:39;5.90;58.60
14101;DHT22;7127;49.372;8.166;2024-01-30T07:39:06;5.90;58.80
14101;DHT22;7127;49.372;8.166;2024-01-30T07:41:32;6.00;58.70
14101;DHT22;7127;49.372;8.166;2024-01-30T07:44:00;6.00;58.80
14101;DHT22;7127;49.372;8.166;2024-01-30T07:46:27;6.10;58.70
14101;DHT22;7127;49.372;8.166;2024-01-30T07:48:55;6.10;58.70
14101;DHT22;7127;49.372;8.166;2024-01-30T07:51:22;6.10;58.80
14101;DHT22;7127;49.372;8.166;2024-01-30T07:53:49;6.10;58.70
14101;DHT22;7127;49.372;8.166;2024-01-30T07:56:16;6.20;59.00
14101;DHT22;7127;49.372;8.166;2024-01-30T07:58:43;6.20;59.00
14101;DHT22;7127;49.372;8.166;2024-01-30T08:01:10;6.30;59.10
14101;DHT22;7127;49.372;8.166;2024-01-30T08:03:36;6.30;59.10
14101;DHT22;7127;49.372;8.166;2024-01-30T08:06:06;6.40;59.30
14101;DHT22;7127;49.372;8.166;2024-01-30T08:08:33;6.40;59.40
14101;DHT22;7127;49.372;8.166;2024-01-30T08:11:00;6.50;59.60
14101;DHT22;7127;49.372;8.166;2024-01-30T08:13:27;6.60;59.70
14101;DHT22;7127;49.372;8.166;2024-01-30T08:15:54;6.70;59.90
14101;DHT22;7127;49.372;8.166;2024-01-30T08:18:20;6.80;59.80
14101;DHT22;7127;49.372;8.166;2024-01-30T08:20:47;6.80;59.80
14101;DHT22;7127;49.372;8.166;2024-01-30T08:23:16;6.90;59.90
14101;DHT22;7127;49.372;8.166;2024-01-30T08:25:42;7.00;59.90
14101;DHT22;7127;49.372;8.166;2024-01-30T08:28:09;7.10;60.10
14101;DHT22;7127;49.372;8.166;2024-01-30T08:30:36;7.20;59.80
14101;DHT22;7127;49.372;8.166;2024-01-30T08:33:04;7.30;59.60
14101;DHT22;7127;49.372;8.166;2024-01-30T08:35:31;7.30;59.40
14101;DHT22;7127;49.372;8.166;2024-01-30T08:37:58;7.50;59.30
14101;DHT22;7127;49.372;8.166;2024-01-30T08:40:27;7.40;59.10
14101;DHT22;7127;49.372;8.166;2024-01-30T08:42:54;7.40;59.00
14101;DHT22;7127;49.372;8.166;2024-01-30T08:45:21;7.50;58.90
14101;DHT22;7127;49.372;8.166;2024-01-30T08:47:47;7.50;58.90
14101;DHT22;7127;49.372;8.166;2024-01-30T08:50:14;7.60;59.00
14101;DHT22;7127;49.372;8.166;2024-01-30T08:52:41;7.60;59.00
14101;DHT22;7127;49.372;8.166;2024-01-30T08:55:08;7.60;59.00
14101;DHT22;7127;49.372;8.166;2024-01-30T08:57:36;7.70;59.10
14101;DHT22;7127;49.372;8.166;2024-01-30T09:00:04;7.70;59.00
14101;DHT22;7127;49.372;8.166;2024-01-30T09:02:34;7.70;59.10
14101;DHT22;7127;49.372;8.166;2024-01-30T09:05:01;7.80;59.20
14101;DHT22;7127;49.372;8.166;2024-01-30T09:07:28;7.90;59.20
14101;DHT22;7127;49.372;8.166;2024-01-30T09:09:55;7.90;59.20
14101;DHT22;7127;49.372;8.166;2024-01-30T09:12:21;8.00;59.30
14101;DHT22;7127;49.372;8.166;2024-01-30T09:14:49;8.10;59.20
14101;DHT22;7127;49.372;8.166;2024-01-30T09:17:16;8.10;59.20
14101;DHT22;7127;49.372;8.166;2024-01-30T09:19:43;8.10;59.00
14101;DHT22;7127;49.372;8.166;2024-01-30T09:22:10;8.20;59.20
14101;DHT22;7127;49.372;8.166;2024-01-30T09:24:37;8.20;59.20
14101;DHT22;7127;49.372;8.166;2024-01-30T09:27:04;8.30;59.30
14101;DHT22;7127;49.372;8.166;2024-01-30T09:29:31;8.30;59.40
14101;DHT22;7127;49.372;8.166;2024-01-30T09:32:01;8.40;59.40
14101;DHT22;7127;49.372;8.166;2024-01-30T09:34:27;8.50;60.10
14101;DHT22;7127;49.372;8.166;2024-01-30T09:36:54;8.50;59.40
14101;DHT22;7127;49.372;8.166;2024-01-30T09:39:21;8.60;59.30
14101;DHT22;7127;49.372;8.166;2024-01-30T09:41:49;8.70;59.20
14101;DHT22;7127;49.372;8.166;2024-01-30T09:44:20;8.70;59.20
14101;DHT22;7127;49.372;8.166;2024-01-30T09:46:48;8.80;59.20
14101;DHT22;7127;49.372;8.166;2024-01-30T09:49:17;8.90;59.20
14101;DHT22;7127;49.372;8.166;2024-01-30T09:51:45;8.90;59.10
14101;DHT22;7127;49.372;8.166;2024-01-30T09:54:14;9.00;59.20
14101;DHT22;7127;49.372;8.166;2024-01-30T09:56:40;9.00;59.20
14101;DHT22;7127;49.372;8.166;2024-01-30T09:59:08;9.00;59.10
14101;DHT22;7127;49.372;8.166;2024-01-30T10:01:35;9.10;59.10
14101;DHT22;7127;49.372;8.166;2024-01-30T10:04:08;9.70;59.50
14101;DHT22;7127;49.372;8.166;2024-01-30T10:06:37;9.50;59.40
14101;DHT22;7127;49.372;8.166;2024-01-30T10:09:04;9.30;59.20
14101;DHT22;7127;49.372;8.166;2024-01-30T10:11:31;9.30;59.20
14101;DHT22;7127;49.372;8.166;2024-01-30T10:13:58;9.40;59.30
14101;DHT22;7127;49.372;8.166;2024-01-30T10:16:25;9.40;59.40
14101;DHT22;7127;49.372;8.166;2024-01-30T10:18:51;9.50;59.40
14101;DHT22;7127;49.372;8.166;2024-01-30T10:21:18;9.60;59.50
14101;DHT22;7127;49.372;8.166;2024-01-30T10:23:47;9.70;59.60
14101;DHT22;7127;49.372;8.166;2024-01-30T10:26:16;9.80;59.60
14101;DHT22;7127;49.372;8.166;2024-01-30T10:28:58;9.80;59.60
14101;DHT22;7127;49.372;8.166;2024-01-30T10:31:24;10.00;59.30
14101;DHT22;7127;49.372;8.166;2024-01-30T10:33:51;10.00;58.70
14101;DHT22;7127;49.372;8.166;2024-01-30T10:39:56;10.30;58.80
14101;DHT22;7127;49.372;8.166;2024-01-30T10:42:31;10.30;58.70
14101;DHT22;7127;49.372;8.166;2024-01-30T10:45:02;10.50;58.80
14101;DHT22;7127;49.372;8.166;2024-01-30T10:47:34;10.50;58.60
14101;DHT22;7127;49.372;8.166;2024-01-30T10:50:02;10.60;58.60
14101;DHT22;7127;49.372;8.166;2024-01-30T10:52:29;10.70;58.60
14101;DHT22;7127;49.372;8.166;2024-01-30T10:54:58;10.70;58.50
14101;DHT22;7127;49.372;8.166;2024-01-30T10:57:26;10.90;58.50
14101;DHT22;7127;49.372;8.166;2024-01-30T10:59:56;10.90;58.50
14101;DHT22;7127;49.372;8.166;2024-01-30T11:02:23;10.90;58.50
14101;DHT22;7127;49.372;8.166;2024-01-30T11:04:55;10.90;58.50
14101;DHT22;7127;49.372;8.166;2024-01-30T11:07:25;11.00;58.60
14101;DHT22;7127;49.372;8.166;2024-01-30T11:09:52;11.10;58.70
14101;DHT22;7127;49.372;8.166;2024-01-30T11:12:25;11.20;58.70
14101;DHT22;7127;49.372;8.166;2024-01-30T11:15:05;11.20;58.60
14101;DHT22;7127;49.372;8.166;2024-01-30T11:17:45;11.20;58.40
14101;DHT22;7127;49.372;8.166;2024-01-30T11:20:20;11.30;58.40
14101;DHT22;7127;49.372;8.166;2024-01-30T11:22:50;11.40;58.50
14101;DHT22;7127;49.372;8.166;2024-01-30T11:25:19;11.40;58.50
14101;DHT22;7127;49.372;8.166;2024-01-30T11:27:50;11.50;58.50
14101;DHT22;7127;49.372;8.166;2024-01-30T11:30:24;11.60;58.60
14101;DHT22;7127;49.372;8.166;2024-01-30T11:32:59;11.60;58.60
14101;DHT22;7127;49.372;8.166;2024-01-30T11:35:26;11.80;58.70
14101;DHT22;7127;49.372;8.166;2024-01-30T11:37:57;11.80;58.60
14101;DHT22;7127;49.372;8.166;2024-01-30T11:40:26;11.80;59.20
14101;DHT22;7127;49.372;8.166;2024-01-30T11:42:58;11.90;58.60
14101;DHT22;7127;49.372;8.166;2024-01-30T11:45:39;12.00;58.40
14101;DHT22;7127;49.372;8.166;2024-01-30T11:48:09;12.10;58.40
14101;DHT22;7127;49.372;8.166;2024-01-30T11:50:54;12.10;58.40
14101;DHT22;7127;49.372;8.166;2024-01-30T11:53:21;12.50;58.50
14101;DHT22;7127;49.372;8.166;2024-01-30T11:55:50;12.00;58.60
14101;DHT22;7127;49.372;8.166;2024-01-30T11:58:18;12.40;58.20
14101;DHT22;7127;49.372;8.166;2024-01-30T12:00:53;12.40;58.10
14101;DHT22;7127;49.372;8.166;2024-01-30T12:03:21;12.50;58.10
14101;DHT22;7127;49.372;8.166;2024-01-30T12:05:55;12.50;58.00
14101;DHT22;7127;49.372;8.166;2024-01-30T12:08:21;12.60;58.00
14101;DHT22;7127;49.372;8.166;2024-01-30T12:10:55;12.60;58.00
14101;DHT22;7127;49.372;8.166;2024-01-30T12:13:24;12.70;58.00
14101;DHT22;7127;49.372;8.166;2024-01-30T12:15:52;12.70;58.00
14101;DHT22;7127;49.372;8.166;2024-01-30T12:18:19;12.80;57.90
14101;DHT22;7127;49.372;8.166;2024-01-30T12:20:56;12.90;58.00
14101;DHT22;7127;49.372;8.166;2024-01-30T12:23:24;12.90;58.00
14101;DHT22;7127;49.372;8.166;2024-01-30T12:25:51;13.00;58.10
14101;DHT22;7127;49.372;8.166;2024-01-30T12:28:19;13.00;58.00
14101;DHT22;7127;49.372;8.166;2024-01-30T12:30:47;13.00;58.00
14101;DHT22;7127;49.372;8.166;2024-01-30T12:33:16;13.20;58.10
14101;DHT22;7127;49.372;8.166;2024-01-30T12:35:45;13.10;57.90
14101;DHT22;7127;49.372;8.166;2024-01-30T12:38:13;13.20;57.90
14101;DHT22;7127;49.372;8.166;2024-01-30T12:40:40;13.40;58.00
14101;DHT22;7127;49.372;8.166;2024-01-30T12:43:07;13.30;57.90
14101;DHT22;7127;49.372;8.166;2024-01-30T12:45:34;13.40;57.80
14101;DHT22;7127;49.372;8.166;2024-01-30T12:48:04;13.40;57.70
14101;DHT22;7127;49.372;8.166;2024-01-30T12:50:31;13.50;57.60
14101;DHT22;7127;49.372;8.166;2024-01-30T12:52:58;13.70;57.70
14101;DHT22;7127;49.372;8.166;2024-01-30T12:55:25;13.60;57.50
14101;DHT22;7127;49.372;8.166;2024-01-30T12:57:53;13.60;57.40
14101;DHT22;7127;49.372;8.166;2024-01-30T13:00:21;13.60;57.30
14101;DHT22;7127;49.372;8.166;2024-01-30T13:02:48;13.70;57.40
14101;DHT22;7127;49.372;8.166;2024-01-30T13:05:16;13.70;57.30
14101;DHT22;7127;49.372;8.166;2024-01-30T13:07:43;13.70;57.20
14101;DHT22;7127;49.372;8.166;2024-01-30T13:10:10;13.80;57.30
14101;DHT22;7127;49.372;8.166;2024-01-30T13:12:37;14.00;57.40
14101;DHT22;7127;49.372;8.166;2024-01-30T13:15:04;13.80;57.20
14101;DHT22;7127;49.372;8.166;2024-01-30T13:17:32;13.90;57.20
14101;DHT22;7127;49.372;8.166;2024-01-30T13:19:59;14.00;57.20
14101;DHT22;7127;49.372;8.166;2024-01-30T13:22:27;13.90;57.00
14101;DHT22;7127;49.372;8.166;2024-01-30T13:24:54;14.00;57.00
14101;DHT22;7127;49.372;8.166;2024-01-30T13:27:21;14.00;57.00
14101;DHT22;7127;49.372;8.166;2024-01-30T13:29:48;14.10;57.00
14101;DHT22;7127;49.372;8.166;2024-01-30T13:32:15;14.20;56.90
14101;DHT22;7127;49.372;8.166;2024-01-30T13:34:42;14.20;56.90
14101;DHT22;7127;49.372;8.166;2024-01-30T13:37:09;14.20;56.90
14101;DHT22;7127;49.372;8.166;2024-01-30T13:39:37;14.20;56.90
14101;DHT22;7127;49.372;8.166;2024-01-30T13:42:04;14.30;56.90
14101;DHT22;7127;49.372;8.166;2024-01-30T13:44:31;14.30;56.80
14101;DHT22;7127;49.372;8.166;2024-01-30T13:46:58;14.40;56.80
14101;DHT22;7127;49.372;8.166;2024-01-30T13:49:25;14.30;56.60
14101;DHT22;7127;49.372;8.166;2024-01-30T13:51:52;14.30;56.60
14101;DHT22;7127;49.372;8.166;2024-01-30T13:54:19;14.30;56.60
14101;DHT22;7127;49.372;8.166;2024-01-30T13:56:47;14.30;56.60
14101;DHT22;7127;49.372;8.166;2024-01-30T13:59:14;14.40;56.60
14101;DHT22;7127;49.372;8.166;2024-01-30T14:01:41;14.40;56.60
14101;DHT22;7127;49.372;8.166;2024-01-30T14:04:07;14.40;56.60
14101;DHT22;7127;49.372;8.166;2024-01-30T14:06:34;14.50;56.60
14101;DHT22;7127;49.372;8.166;2024-01-30T14:09:01;14.40;56.50
14101;DHT22;7127;49.372;8.166;2024-01-30T14:11:29;14.50;56.60
14101;DHT22;7127;49.372;8.166;2024-01-30T14:13:57;14.50;57.20
14101;DHT22;7127;49.372;8.166;2024-01-30T14:16:24;14.50;56.50
14101;DHT22;7127;49.372;8.166;2024-01-30T14:18:51;14.50;56.50
14101;DHT22;7127;49.372;8.166;2024-01-30T14:21:17;14.50;56.50
14101;DHT22;7127;49.372;8.166;2024-01-30T14:23:44;14.50;56.40
14101;DHT22;7127;49.372;8.166;2024-01-30T14:26:12;14.50;56.40
14101;DHT22;7127;49.372;8.166;2024-01-30T14:28:39;14.50;56.40
14101;DHT22;7127;49.372;8.166;2024-01-30T14:31:07;14.60;56.40
14101;DHT22;7127;49.372;8.166;2024-01-30T14:33:35;14.60;56.40
14101;DHT22;7127;49.372;8.166;2024-01-30T14:36:02;14.60;56.30
14101;DHT22;7127;49.372;8.166;2024-01-30T14:38:29;14.60;56.30
14101;DHT22;7127;49.372;8.166;2024-01-30T14:40:56;14.60;56.20
14101;DHT22;7127;49.372;8.166;2024-01-30T14:46:27;14.50;55.90
14101;DHT22;7127;49.372;8.166;2024-01-30T14:48:54;14.80;56.10
14101;DHT22;7127;49.372;8.166;2024-01-30T14:51:23;14.60;56.00
14101;DHT22;7127;49.372;8.166;2024-01-30T14:53:50;14.60;56.00
14101;DHT22;7127;49.372;8.166;2024-01-30T14:56:16;14.50;55.90
14101;DHT22;7127;49.372;8.166;2024-01-30T14:58:46;14.70;56.10
14101;DHT22;7127;49.372;8.166;2024-01-30T15:01:13;14.40;55.80
14101;DHT22;7127;49.372;8.166;2024-01-30T15:03:41;14.50;56.60
14101;DHT22;7127;49.372;8.166;2024-01-30T15:06:08;14.50;56.00
14101;DHT22;7127;49.372;8.166;2024-01-30T15:08:35;14.40;55.90
14101;DHT22;7127;49.372;8.166;2024-01-30T15:11:02;14.50;56.10
14101;DHT22;7127;49.372;8.166;2024-01-30T15:13:30;14.40;55.90
14101;DHT22;7127;49.372;8.166;2024-01-30T15:15:57;14.40;55.90
14101;DHT22;7127;49.372;8.166;2024-01-30T15:18:24;14.60;56.10
14101;DHT22;7127;49.372;8.166;2024-01-30T15:20:52;14.30;55.80
14101;DHT22;7127;49.372;8.166;2024-01-30T15:23:18;14.30;55.80
14101;DHT22;7127;49.372;8.166;2024-01-30T15:25:45;14.30;55.80
14101;DHT22;7127;49.372;8.166;2024-01-30T15:28:12;14.30;55.80
14101;DHT22;7127;49.372;8.166;2024-01-30T15:30:40;14.20;55.80
14101;DHT22;7127;49.372;8.166;2024-01-30T15:33:08;14.20;55.80
14101;DHT22;7127;49.372;8.166;2024-01-30T15:35:35;14.20;55.80
14101;DHT22;7127;49.372;8.166;2024-01-30T15:38:05;14.20;55.90
14101;DHT22;7127;49.372;8.166;2024-01-30T15:40:33;14.20;55.90
14101;DHT22;7127;49.372;8.166;2024-01-30T15:43:00;14.10;55.80
14101;DHT22;7127;49.372;8.166;2024-01-30T15:45:27;14.20;55.80
14101;DHT22;7127;49.372;8.166;2024-01-30T15:47:54;14.10;55.80
14101;DHT22;7127;49.372;8.166;2024-01-30T15:50:23;14.10;55.80
14101;DHT22;7127;49.372;8.166;2024-01-30T15:52:50;14.10;55.80
14101;DHT22;7127;49.372;8.166;2024-01-30T15:55:18;14.00;55.70
14101;DHT22;7127;49.372;8.166;2024-01-30T15:57:45;14.00;55.70
14101;DHT22;7127;49.372;8.166;2024-01-30T16:00:13;13.70;55.50
14101;DHT22;7127;49.372;8.166;2024-01-30T16:02:41;13.90;55.70
14101;DHT22;7127;49.372;8.166;2024-01-30T16:05:08;13.90;55.70